sensor_id;sensor_type;location;lat;lon;timestamp;P1;durP1;ratioP1;P2;durP2;ratioP2
58681;SDS011;44460;40.162;18.294;2023-04-25T00:00:54;7.32;;;2.13;;
58681;SDS011;44460;40.162;18.294;2023-04-25T00:03:19;10.35;;;2.78;;
58681;SDS011;44460;40.162;18.294;2023-04-25T00:05:46;9.20;;;2.03;;
58681;SDS011;44460;40.162;18.294;2023-04-25T00:08:11;8.77;;;2.25;;
58681;SDS011;44460;40.162;18.294;2023-04-25T00:10:37;5.78;;;1.90;;
58681;SDS011;44460;40.162;18.294;2023-04-25T00:13:02;8.82;;;2.42;;
58681;SDS011;44460;40.162;18.294;2023-04-25T00:15:28;8.23;;;1.98;;
58681;SDS011;44460;40.162;18.294;2023-04-25T00:17:56;6.63;;;1.90;;
58681;SDS011;44460;40.162;18.294;2023-04-25T00:20:21;11.55;;;2.45;;
58681;SDS011;44460;40.162;18.294;2023-04-25T00:22:48;6.05;;;2.00;;
58681;SDS011;44460;40.162;18.294;2023-04-25T00:25:14;8.27;;;2.15;;
58681;SDS011;44460;40.162;18.294;2023-04-25T00:27:39;8.23;;;2.08;;
58681;SDS011;44460;40.162;18.294;2023-04-25T00:30:07;11.10;;;2.23;;
58681;SDS011;44460;40.162;18.294;2023-04-25T00:32:32;7.70;;;2.08;;
58681;SDS011;44460;40.162;18.294;2023-04-25T00:34:58;8.75;;;2.60;;
58681;SDS011;44460;40.162;18.294;2023-04-25T00:37:24;10.52;;;2.25;;
58681;SDS011;44460;40.162;18.294;2023-04-25T00:39:50;14.13;;;2.30;;
58681;SDS011;44460;40.162;18.294;2023-04-25T00:42:15;9.70;;;2.83;;
58681;SDS011;44460;40.162;18.294;2023-04-25T00:44:41;9.90;;;2.42;;
58681;SDS011;44460;40.162;18.294;2023-04-25T00:47:07;9.40;;;2.25;;
58681;SDS011;44460;40.162;18.294;2023-04-25T00:49:33;10.75;;;2.58;;
58681;SDS011;44460;40.162;18.294;2023-04-25T00:51:58;7.82;;;2.33;;
58681;SDS011;44460;40.162;18.294;2023-04-25T00:54:24;11.98;;;2.88;;
58681;SDS011;44460;40.162;18.294;2023-04-25T00:56:50;10.05;;;2.70;;
58681;SDS011;44460;40.162;18.294;2023-04-25T00:59:15;12.90;;;2.58;;
58681;SDS011;44460;40.162;18.294;2023-04-25T01:01:42;9.15;;;2.67;;
58681;SDS011;44460;40.162;18.294;2023-04-25T01:04:09;15.43;;;3.00;;
58681;SDS011;44460;40.162;18.294;2023-04-25T01:06:34;13.95;;;2.70;;
58681;SDS011;44460;40.162;18.294;2023-04-25T01:09:00;9.80;;;2.53;;
58681;SDS011;44460;40.162;18.294;2023-04-25T01:11:26;8.15;;;2.60;;
58681;SDS011;44460;40.162;18.294;2023-04-25T01:13:52;10.80;;;2.83;;
58681;SDS011;44460;40.162;18.294;2023-04-25T01:16:17;13.88;;;3.05;;
58681;SDS011;44460;40.162;18.294;2023-04-25T01:18:43;14.27;;;2.88;;
58681;SDS011;44460;40.162;18.294;2023-04-25T01:21:12;10.25;;;2.88;;
58681;SDS011;44460;40.162;18.294;2023-04-25T01:23:41;8.07;;;2.60;;
58681;SDS011;44460;40.162;18.294;2023-04-25T01:26:07;13.35;;;3.03;;
58681;SDS011;44460;40.162;18.294;2023-04-25T01:28:33;8.77;;;2.60;;
58681;SDS011;44460;40.162;18.294;2023-04-25T01:31:00;12.85;;;2.92;;
58681;SDS011;44460;40.162;18.294;2023-04-25T01:33:26;13.45;;;2.60;;
58681;SDS011;44460;40.162;18.294;2023-04-25T01:35:52;11.93;;;3.03;;
58681;SDS011;44460;40.162;18.294;2023-04-25T01:38:18;7.80;;;2.50;;
58681;SDS011;44460;40.162;18.294;2023-04-25T01:40:45;11.82;;;2.92;;
58681;SDS011;44460;40.162;18.294;2023-04-25T01:43:10;10.02;;;3.33;;
58681;SDS011;44460;40.162;18.294;2023-04-25T01:45:38;12.18;;;3.40;;
58681;SDS011;44460;40.162;18.294;2023-04-25T01:48:08;16.55;;;3.50;;
58681;SDS011;44460;40.162;18.294;2023-04-25T01:50:35;11.10;;;3.10;;
58681;SDS011;44460;40.162;18.294;2023-04-25T01:53:01;11.93;;;3.60;;
58681;SDS011;44460;40.162;18.294;2023-04-25T01:55:29;10.88;;;3.35;;
58681;SDS011;44460;40.162;18.294;2023-04-25T01:58:00;15.93;;;3.72;;
58681;SDS011;44460;40.162;18.294;2023-04-25T02:00:44;11.85;;;2.80;;
58681;SDS011;44460;40.162;18.294;2023-04-25T02:03:09;11.95;;;3.03;;
58681;SDS011;44460;40.162;18.294;2023-04-25T02:05:36;11.73;;;3.45;;
58681;SDS011;44460;40.162;18.294;2023-04-25T02:08:04;14.00;;;3.42;;
58681;SDS011;44460;40.162;18.294;2023-04-25T02:10:30;10.50;;;3.10;;
58681;SDS011;44460;40.162;18.294;2023-04-25T02:13:09;15.73;;;3.45;;
58681;SDS011;44460;40.162;18.294;2023-04-25T02:16:00;8.93;;;3.22;;
58681;SDS011;44460;40.162;18.294;2023-04-25T02:18:26;13.35;;;3.20;;
58681;SDS011;44460;40.162;18.294;2023-04-25T02:20:51;9.55;;;3.30;;
58681;SDS011;44460;40.162;18.294;2023-04-25T02:23:17;9.63;;;3.13;;
58681;SDS011;44460;40.162;18.294;2023-04-25T02:25:44;11.60;;;3.65;;
58681;SDS011;44460;40.162;18.294;2023-04-25T02:28:09;9.95;;;3.53;;
58681;SDS011;44460;40.162;18.294;2023-04-25T02:30:37;13.73;;;3.40;;
58681;SDS011;44460;40.162;18.294;2023-04-25T02:33:04;7.93;;;2.67;;
58681;SDS011;44460;40.162;18.294;2023-04-25T02:35:29;12.35;;;3.33;;
58681;SDS011;44460;40.162;18.294;2023-04-25T02:37:55;10.60;;;3.13;;
58681;SDS011;44460;40.162;18.294;2023-04-25T02:40:20;11.38;;;3.75;;
58681;SDS011;44460;40.162;18.294;2023-04-25T02:42:46;15.52;;;3.08;;
58681;SDS011;44460;40.162;18.294;2023-04-25T02:45:11;9.73;;;3.00;;
58681;SDS011;44460;40.162;18.294;2023-04-25T02:47:37;10.02;;;2.67;;
58681;SDS011;44460;40.162;18.294;2023-04-25T02:50:03;12.40;;;3.30;;
58681;SDS011;44460;40.162;18.294;2023-04-25T02:52:28;8.93;;;2.83;;
58681;SDS011;44460;40.162;18.294;2023-04-25T02:55:01;11.18;;;2.80;;
58681;SDS011;44460;40.162;18.294;2023-04-25T02:57:28;12.90;;;3.33;;
58681;SDS011;44460;40.162;18.294;2023-04-25T02:59:55;12.13;;;3.03;;
58681;SDS011;44460;40.162;18.294;2023-04-25T03:02:20;8.30;;;3.08;;
58681;SDS011;44460;40.162;18.294;2023-04-25T03:04:46;12.63;;;2.90;;
58681;SDS011;44460;40.162;18.294;2023-04-25T03:07:12;14.13;;;3.70;;
58681;SDS011;44460;40.162;18.294;2023-04-25T03:09:37;15.18;;;3.30;;
58681;SDS011;44460;40.162;18.294;2023-04-25T03:12:03;14.63;;;3.47;;
58681;SDS011;44460;40.162;18.294;2023-04-25T03:14:28;12.00;;;2.70;;
58681;SDS011;44460;40.162;18.294;2023-04-25T03:16:53;7.25;;;2.70;;
58681;SDS011;44460;40.162;18.294;2023-04-25T03:19:19;12.05;;;3.00;;
58681;SDS011;44460;40.162;18.294;2023-04-25T03:21:46;17.17;;;3.58;;
58681;SDS011;44460;40.162;18.294;2023-04-25T03:24:12;13.32;;;3.10;;
58681;SDS011;44460;40.162;18.294;2023-04-25T03:26:37;12.43;;;3.35;;
58681;SDS011;44460;40.162;18.294;2023-04-25T03:29:04;7.50;;;2.60;;
58681;SDS011;44460;40.162;18.294;2023-04-25T03:31:29;12.55;;;3.35;;
58681;SDS011;44460;40.162;18.294;2023-04-25T03:33:55;17.13;;;4.03;;
58681;SDS011;44460;40.162;18.294;2023-04-25T03:36:22;14.32;;;2.97;;
58681;SDS011;44460;40.162;18.294;2023-04-25T03:38:48;7.68;;;2.88;;
58681;SDS011;44460;40.162;18.294;2023-04-25T03:41:15;12.82;;;2.63;;
58681;SDS011;44460;40.162;18.294;2023-04-25T03:43:44;12.85;;;2.85;;
58681;SDS011;44460;40.162;18.294;2023-04-25T03:46:12;11.05;;;2.55;;
58681;SDS011;44460;40.162;18.294;2023-04-25T03:48:38;14.45;;;3.08;;
58681;SDS011;44460;40.162;18.294;2023-04-25T03:51:05;11.20;;;3.40;;
58681;SDS011;44460;40.162;18.294;2023-04-25T03:53:34;11.20;;;3.42;;
58681;SDS011;44460;40.162;18.294;2023-04-25T03:56:25;9.50;;;2.80;;
58681;SDS011;44460;40.162;18.294;2023-04-25T03:58:59;12.43;;;3.30;;
58681;SDS011;44460;40.162;18.294;2023-04-25T04:01:26;11.70;;;3.05;;
58681;SDS011;44460;40.162;18.294;2023-04-25T04:03:52;9.23;;;3.40;;
58681;SDS011;44460;40.162;18.294;2023-04-25T04:06:18;12.45;;;3.35;;
58681;SDS011;44460;40.162;18.294;2023-04-25T04:08:49;13.70;;;2.92;;
58681;SDS011;44460;40.162;18.294;2023-04-25T04:11:14;12.93;;;3.92;;
58681;SDS011;44460;40.162;18.294;2023-04-25T04:13:40;11.93;;;3.42;;
58681;SDS011;44460;40.162;18.294;2023-04-25T04:16:06;15.15;;;4.10;;
58681;SDS011;44460;40.162;18.294;2023-04-25T04:18:32;13.85;;;3.67;;
58681;SDS011;44460;40.162;18.294;2023-04-25T04:20:59;14.63;;;3.50;;
58681;SDS011;44460;40.162;18.294;2023-04-25T04:23:28;13.85;;;3.55;;
58681;SDS011;44460;40.162;18.294;2023-04-25T04:25:54;11.90;;;3.55;;
58681;SDS011;44460;40.162;18.294;2023-04-25T04:28:38;14.45;;;2.90;;
58681;SDS011;44460;40.162;18.294;2023-04-25T04:31:35;32.78;;;3.88;;
58681;SDS011;44460;40.162;18.294;2023-04-25T04:34:02;13.75;;;3.08;;
58681;SDS011;44460;40.162;18.294;2023-04-25T04:36:29;12.75;;;3.53;;
58681;SDS011;44460;40.162;18.294;2023-04-25T04:38:55;12.93;;;3.00;;
58681;SDS011;44460;40.162;18.294;2023-04-25T04:41:47;15.45;;;2.90;;
58681;SDS011;44460;40.162;18.294;2023-04-25T04:44:33;16.25;;;3.20;;
58681;SDS011;44460;40.162;18.294;2023-04-25T04:47:09;13.15;;;3.30;;
58681;SDS011;44460;40.162;18.294;2023-04-25T04:49:52;13.85;;;3.03;;
58681;SDS011;44460;40.162;18.294;2023-04-25T04:52:41;11.38;;;3.00;;
58681;SDS011;44460;40.162;18.294;2023-04-25T04:55:32;11.02;;;3.50;;
58681;SDS011;44460;40.162;18.294;2023-04-25T04:58:20;11.18;;;3.20;;
58681;SDS011;44460;40.162;18.294;2023-04-25T05:00:58;16.33;;;4.50;;
58681;SDS011;44460;40.162;18.294;2023-04-25T05:03:40;16.33;;;4.95;;
58681;SDS011;44460;40.162;18.294;2023-04-25T05:06:32;18.25;;;4.30;;
58681;SDS011;44460;40.162;18.294;2023-04-25T05:09:15;13.43;;;4.28;;
58681;SDS011;44460;40.162;18.294;2023-04-25T05:11:59;13.02;;;4.13;;
58681;SDS011;44460;40.162;18.294;2023-04-25T05:14:52;10.82;;;3.85;;
58681;SDS011;44460;40.162;18.294;2023-04-25T05:17:40;13.55;;;4.70;;
58681;SDS011;44460;40.162;18.294;2023-04-25T05:20:31;12.93;;;4.35;;
58681;SDS011;44460;40.162;18.294;2023-04-25T05:23:12;17.67;;;4.82;;
58681;SDS011;44460;40.162;18.294;2023-04-25T05:25:44;12.57;;;4.63;;
58681;SDS011;44460;40.162;18.294;2023-04-25T05:28:20;16.35;;;5.38;;
58681;SDS011;44460;40.162;18.294;2023-04-25T05:31:09;15.13;;;5.35;;
58681;SDS011;44460;40.162;18.294;2023-04-25T05:33:52;22.05;;;5.32;;
58681;SDS011;44460;40.162;18.294;2023-04-25T05:36:19;14.13;;;4.30;;
58681;SDS011;44460;40.162;18.294;2023-04-25T05:38:45;16.45;;;4.50;;
58681;SDS011;44460;40.162;18.294;2023-04-25T05:41:13;10.90;;;3.85;;
58681;SDS011;44460;40.162;18.294;2023-04-25T05:43:57;13.13;;;3.95;;
58681;SDS011;44460;40.162;18.294;2023-04-25T05:46:43;12.10;;;3.30;;
58681;SDS011;44460;40.162;18.294;2023-04-25T05:49:21;13.32;;;3.17;;
58681;SDS011;44460;40.162;18.294;2023-04-25T05:52:01;14.95;;;2.67;;
58681;SDS011;44460;40.162;18.294;2023-04-25T05:54:38;8.70;;;2.72;;
58681;SDS011;44460;40.162;18.294;2023-04-25T05:57:04;14.77;;;2.60;;
58681;SDS011;44460;40.162;18.294;2023-04-25T05:59:31;12.55;;;3.03;;
58681;SDS011;44460;40.162;18.294;2023-04-25T06:01:56;8.25;;;2.30;;
58681;SDS011;44460;40.162;18.294;2023-04-25T06:04:22;8.40;;;2.63;;
58681;SDS011;44460;40.162;18.294;2023-04-25T06:06:48;10.80;;;2.30;;
58681;SDS011;44460;40.162;18.294;2023-04-25T06:09:14;9.60;;;2.55;;
58681;SDS011;44460;40.162;18.294;2023-04-25T06:11:39;10.93;;;3.03;;
58681;SDS011;44460;40.162;18.294;2023-04-25T06:14:05;8.90;;;2.28;;
58681;SDS011;44460;40.162;18.294;2023-04-25T06:16:33;12.32;;;2.42;;
58681;SDS011;44460;40.162;18.294;2023-04-25T06:18:58;10.85;;;2.40;;
58681;SDS011;44460;40.162;18.294;2023-04-25T06:21:24;6.05;;;2.45;;
58681;SDS011;44460;40.162;18.294;2023-04-25T06:23:51;8.05;;;1.90;;
58681;SDS011;44460;40.162;18.294;2023-04-25T06:26:22;8.93;;;2.25;;
58681;SDS011;44460;40.162;18.294;2023-04-25T06:28:48;8.00;;;2.20;;
58681;SDS011;44460;40.162;18.294;2023-04-25T06:31:14;5.65;;;2.10;;
58681;SDS011;44460;40.162;18.294;2023-04-25T06:33:42;12.73;;;2.75;;
58681;SDS011;44460;40.162;18.294;2023-04-25T06:36:08;9.40;;;2.20;;
58681;SDS011;44460;40.162;18.294;2023-04-25T06:38:35;11.00;;;3.03;;
58681;SDS011;44460;40.162;18.294;2023-04-25T06:41:01;9.30;;;2.70;;
58681;SDS011;44460;40.162;18.294;2023-04-25T06:43:30;11.70;;;2.47;;
58681;SDS011;44460;40.162;18.294;2023-04-25T06:46:04;8.07;;;2.20;;
58681;SDS011;44460;40.162;18.294;2023-04-25T06:48:32;9.93;;;2.60;;
58681;SDS011;44460;40.162;18.294;2023-04-25T06:50:58;13.95;;;3.42;;
58681;SDS011;44460;40.162;18.294;2023-04-25T06:53:27;9.55;;;3.63;;
58681;SDS011;44460;40.162;18.294;2023-04-25T06:55:57;9.20;;;2.95;;
58681;SDS011;44460;40.162;18.294;2023-04-25T06:58:27;8.57;;;1.98;;
58681;SDS011;44460;40.162;18.294;2023-04-25T07:00:58;10.50;;;2.20;;
58681;SDS011;44460;40.162;18.294;2023-04-25T07:03:25;8.48;;;1.90;;
58681;SDS011;44460;40.162;18.294;2023-04-25T07:05:55;11.32;;;1.80;;
58681;SDS011;44460;40.162;18.294;2023-04-25T07:08:20;5.82;;;1.95;;
58681;SDS011;44460;40.162;18.294;2023-04-25T07:10:46;8.13;;;2.03;;
58681;SDS011;44460;40.162;18.294;2023-04-25T07:13:12;5.95;;;1.80;;
58681;SDS011;44460;40.162;18.294;2023-04-25T07:15:37;6.72;;;1.98;;
58681;SDS011;44460;40.162;18.294;2023-04-25T07:18:04;7.67;;;2.27;;
58681;SDS011;44460;40.162;18.294;2023-04-25T07:20:30;7.88;;;2.13;;
58681;SDS011;44460;40.162;18.294;2023-04-25T07:22:56;11.25;;;2.40;;
58681;SDS011;44460;40.162;18.294;2023-04-25T07:25:22;5.00;;;1.80;;
58681;SDS011;44460;40.162;18.294;2023-04-25T07:27:49;9.60;;;2.53;;
58681;SDS011;44460;40.162;18.294;2023-04-25T07:30:17;12.63;;;2.03;;
58681;SDS011;44460;40.162;18.294;2023-04-25T07:32:42;5.63;;;1.90;;
58681;SDS011;44460;40.162;18.294;2023-04-25T07:35:08;8.93;;;2.15;;
58681;SDS011;44460;40.162;18.294;2023-04-25T07:37:34;8.43;;;1.90;;
58681;SDS011;44460;40.162;18.294;2023-04-25T07:40:09;9.35;;;2.10;;
58681;SDS011;44460;40.162;18.294;2023-04-25T07:42:37;6.93;;;2.03;;
58681;SDS011;44460;40.162;18.294;2023-04-25T07:45:05;11.30;;;2.03;;
58681;SDS011;44460;40.162;18.294;2023-04-25T07:47:30;9.10;;;2.35;;
58681;SDS011;44460;40.162;18.294;2023-04-25T07:49:56;9.50;;;2.25;;
58681;SDS011;44460;40.162;18.294;2023-04-25T07:52:23;8.30;;;2.10;;
58681;SDS011;44460;40.162;18.294;2023-04-25T07:54:54;7.88;;;1.95;;
58681;SDS011;44460;40.162;18.294;2023-04-25T07:57:27;8.43;;;2.28;;
58681;SDS011;44460;40.162;18.294;2023-04-25T07:59:54;6.88;;;1.80;;
58681;SDS011;44460;40.162;18.294;2023-04-25T08:02:21;11.30;;;1.90;;
58681;SDS011;44460;40.162;18.294;2023-04-25T08:04:46;7.60;;;2.25;;
58681;SDS011;44460;40.162;18.294;2023-04-25T08:07:15;5.00;;;1.77;;
58681;SDS011;44460;40.162;18.294;2023-04-25T08:09:48;7.80;;;1.90;;
58681;SDS011;44460;40.162;18.294;2023-04-25T08:12:21;5.88;;;1.80;;
58681;SDS011;44460;40.162;18.294;2023-04-25T08:14:47;7.15;;;1.98;;
58681;SDS011;44460;40.162;18.294;2023-04-25T08:17:12;5.75;;;2.10;;
58681;SDS011;44460;40.162;18.294;2023-04-25T08:22:07;11.10;;;1.90;;
58681;SDS011;44460;40.162;18.294;2023-04-25T08:24:44;7.45;;;2.33;;
58681;SDS011;44460;40.162;18.294;2023-04-25T08:27:10;5.68;;;1.83;;
58681;SDS011;44460;40.162;18.294;2023-04-25T08:29:36;8.98;;;2.33;;
58681;SDS011;44460;40.162;18.294;2023-04-25T08:32:01;8.70;;;2.35;;
58681;SDS011;44460;40.162;18.294;2023-04-25T08:34:27;6.53;;;2.13;;
58681;SDS011;44460;40.162;18.294;2023-04-25T08:36:54;10.90;;;2.47;;
58681;SDS011;44460;40.162;18.294;2023-04-25T08:39:29;9.85;;;3.08;;
58681;SDS011;44460;40.162;18.294;2023-04-25T08:42:12;8.00;;;2.28;;
58681;SDS011;44460;40.162;18.294;2023-04-25T08:44:38;8.73;;;2.22;;
58681;SDS011;44460;40.162;18.294;2023-04-25T08:47:05;9.80;;;2.00;;
58681;SDS011;44460;40.162;18.294;2023-04-25T08:49:34;7.78;;;2.00;;
58681;SDS011;44460;40.162;18.294;2023-04-25T08:52:00;8.90;;;1.88;;
58681;SDS011;44460;40.162;18.294;2023-04-25T08:54:29;9.55;;;1.98;;
58681;SDS011;44460;40.162;18.294;2023-04-25T08:56:56;8.23;;;1.92;;
58681;SDS011;44460;40.162;18.294;2023-04-25T08:59:23;9.95;;;2.05;;
58681;SDS011;44460;40.162;18.294;2023-04-25T09:01:49;6.32;;;1.67;;
58681;SDS011;44460;40.162;18.294;2023-04-25T09:04:15;7.88;;;1.92;;
58681;SDS011;44460;40.162;18.294;2023-04-25T09:06:41;6.50;;;1.70;;
58681;SDS011;44460;40.162;18.294;2023-04-25T09:09:07;9.75;;;2.17;;
58681;SDS011;44460;40.162;18.294;2023-04-25T09:11:33;9.35;;;1.92;;
58681;SDS011;44460;40.162;18.294;2023-04-25T09:14:22;9.95;;;2.00;;
58681;SDS011;44460;40.162;18.294;2023-04-25T09:17:06;5.88;;;2.00;;
58681;SDS011;44460;40.162;18.294;2023-04-25T09:19:41;8.77;;;2.30;;
58681;SDS011;44460;40.162;18.294;2023-04-25T09:22:15;7.75;;;2.42;;
58681;SDS011;44460;40.162;18.294;2023-04-25T09:24:43;8.02;;;1.83;;
58681;SDS011;44460;40.162;18.294;2023-04-25T09:27:11;8.23;;;2.20;;
58681;SDS011;44460;40.162;18.294;2023-04-25T09:29:38;10.97;;;3.07;;
58681;SDS011;44460;40.162;18.294;2023-04-25T09:34:40;6.00;;;1.88;;
58681;SDS011;44460;40.162;18.294;2023-04-25T09:37:06;15.73;;;2.17;;
58681;SDS011;44460;40.162;18.294;2023-04-25T09:39:58;8.60;;;1.88;;
58681;SDS011;44460;40.162;18.294;2023-04-25T09:44:55;5.35;;;1.90;;
58681;SDS011;44460;40.162;18.294;2023-04-25T09:47:22;7.85;;;1.80;;
58681;SDS011;44460;40.162;18.294;2023-04-25T09:52:15;5.88;;;1.75;;
58681;SDS011;44460;40.162;18.294;2023-04-25T09:54:50;8.70;;;2.03;;
58681;SDS011;44460;40.162;18.294;2023-04-25T09:57:23;6.35;;;2.03;;
58681;SDS011;44460;40.162;18.294;2023-04-25T09:59:52;7.53;;;1.95;;
58681;SDS011;44460;40.162;18.294;2023-04-25T10:02:19;11.82;;;1.85;;
58681;SDS011;44460;40.162;18.294;2023-04-25T10:04:50;8.68;;;2.00;;
58681;SDS011;44460;40.162;18.294;2023-04-25T10:07:26;8.23;;;2.17;;
58681;SDS011;44460;40.162;18.294;2023-04-25T10:09:55;8.48;;;2.33;;
58681;SDS011;44460;40.162;18.294;2023-04-25T10:12:24;7.60;;;1.92;;
58681;SDS011;44460;40.162;18.294;2023-04-25T10:14:50;10.70;;;2.10;;
58681;SDS011;44460;40.162;18.294;2023-04-25T10:17:15;10.68;;;2.35;;
58681;SDS011;44460;40.162;18.294;2023-04-25T10:19:42;6.78;;;2.40;;
58681;SDS011;44460;40.162;18.294;2023-04-25T10:22:08;11.32;;;2.13;;
58681;SDS011;44460;40.162;18.294;2023-04-25T10:24:36;13.55;;;2.22;;
58681;SDS011;44460;40.162;18.294;2023-04-25T10:27:02;8.23;;;1.85;;
58681;SDS011;44460;40.162;18.294;2023-04-25T10:29:28;7.78;;;2.20;;
58681;SDS011;44460;40.162;18.294;2023-04-25T10:31:53;7.75;;;1.92;;
58681;SDS011;44460;40.162;18.294;2023-04-25T10:34:19;9.05;;;2.13;;
58681;SDS011;44460;40.162;18.294;2023-04-25T10:36:51;9.77;;;2.22;;
58681;SDS011;44460;40.162;18.294;2023-04-25T10:39:24;12.75;;;3.17;;
58681;SDS011;44460;40.162;18.294;2023-04-25T10:41:53;7.57;;;1.70;;
58681;SDS011;44460;40.162;18.294;2023-04-25T10:44:20;4.32;;;1.67;;
58681;SDS011;44460;40.162;18.294;2023-04-25T10:46:45;8.20;;;1.90;;
58681;SDS011;44460;40.162;18.294;2023-04-25T10:49:11;6.57;;;1.70;;
58681;SDS011;44460;40.162;18.294;2023-04-25T10:51:58;7.82;;;2.00;;
58681;SDS011;44460;40.162;18.294;2023-04-25T10:54:39;7.03;;;2.20;;
58681;SDS011;44460;40.162;18.294;2023-04-25T10:57:05;7.45;;;1.95;;
58681;SDS011;44460;40.162;18.294;2023-04-25T10:59:30;9.75;;;2.38;;
58681;SDS011;44460;40.162;18.294;2023-04-25T11:01:55;8.38;;;1.88;;
58681;SDS011;44460;40.162;18.294;2023-04-25T11:04:31;8.25;;;2.08;;
58681;SDS011;44460;40.162;18.294;2023-04-25T11:09:25;8.00;;;2.10;;
58681;SDS011;44460;40.162;18.294;2023-04-25T11:11:54;9.05;;;2.47;;
58681;SDS011;44460;40.162;18.294;2023-04-25T11:14:20;7.50;;;1.88;;
58681;SDS011;44460;40.162;18.294;2023-04-25T11:16:46;7.15;;;1.65;;
58681;SDS011;44460;40.162;18.294;2023-04-25T11:19:11;7.78;;;1.75;;
58681;SDS011;44460;40.162;18.294;2023-04-25T11:21:36;7.47;;;1.88;;
58681;SDS011;44460;40.162;18.294;2023-04-25T11:24:02;9.80;;;1.70;;
58681;SDS011;44460;40.162;18.294;2023-04-25T11:26:27;8.02;;;2.17;;
58681;SDS011;44460;40.162;18.294;2023-04-25T11:28:56;9.02;;;1.80;;
58681;SDS011;44460;40.162;18.294;2023-04-25T11:31:22;7.00;;;2.28;;
58681;SDS011;44460;40.162;18.294;2023-04-25T11:33:50;10.02;;;2.17;;
58681;SDS011;44460;40.162;18.294;2023-04-25T11:36:16;6.45;;;1.80;;
58681;SDS011;44460;40.162;18.294;2023-04-25T11:38:42;7.90;;;1.73;;
58681;SDS011;44460;40.162;18.294;2023-04-25T11:41:07;5.68;;;1.83;;
58681;SDS011;44460;40.162;18.294;2023-04-25T11:43:32;9.77;;;2.00;;
58681;SDS011;44460;40.162;18.294;2023-04-25T11:45:58;6.47;;;1.83;;
58681;SDS011;44460;40.162;18.294;2023-04-25T11:48:23;8.68;;;1.95;;
58681;SDS011;44460;40.162;18.294;2023-04-25T11:50:49;8.48;;;2.30;;
58681;SDS011;44460;40.162;18.294;2023-04-25T11:53:14;8.93;;;1.90;;
58681;SDS011;44460;40.162;18.294;2023-04-25T11:55:42;7.18;;;1.75;;
58681;SDS011;44460;40.162;18.294;2023-04-25T11:58:08;8.63;;;2.15;;
58681;SDS011;44460;40.162;18.294;2023-04-25T12:00:33;7.43;;;1.98;;
58681;SDS011;44460;40.162;18.294;2023-04-25T12:02:59;8.25;;;2.00;;
58681;SDS011;44460;40.162;18.294;2023-04-25T12:05:26;9.00;;;2.20;;
58681;SDS011;44460;40.162;18.294;2023-04-25T12:07:51;7.15;;;2.00;;
58681;SDS011;44460;40.162;18.294;2023-04-25T12:10:17;5.65;;;2.17;;
58681;SDS011;44460;40.162;18.294;2023-04-25T12:12:43;10.98;;;2.67;;
58681;SDS011;44460;40.162;18.294;2023-04-25T12:15:10;10.55;;;1.90;;
58681;SDS011;44460;40.162;18.294;2023-04-25T12:17:37;6.25;;;2.78;;
58681;SDS011;44460;40.162;18.294;2023-04-25T12:20:06;8.40;;;2.10;;
58681;SDS011;44460;40.162;18.294;2023-04-25T12:22:32;9.00;;;1.63;;
58681;SDS011;44460;40.162;18.294;2023-04-25T12:24:58;6.72;;;1.95;;
58681;SDS011;44460;40.162;18.294;2023-04-25T12:27:23;8.82;;;2.10;;
58681;SDS011;44460;40.162;18.294;2023-04-25T12:29:52;7.60;;;2.00;;
58681;SDS011;44460;40.162;18.294;2023-04-25T12:32:18;6.68;;;2.38;;
58681;SDS011;44460;40.162;18.294;2023-04-25T12:34:43;9.18;;;2.33;;
58681;SDS011;44460;40.162;18.294;2023-04-25T12:37:09;9.95;;;1.90;;
58681;SDS011;44460;40.162;18.294;2023-04-25T12:39:34;9.60;;;2.10;;
58681;SDS011;44460;40.162;18.294;2023-04-25T12:42:00;10.35;;;1.88;;
58681;SDS011;44460;40.162;18.294;2023-04-25T12:44:26;10.57;;;2.00;;
58681;SDS011;44460;40.162;18.294;2023-04-25T12:46:51;10.63;;;2.40;;
58681;SDS011;44460;40.162;18.294;2023-04-25T12:49:17;11.57;;;2.00;;
58681;SDS011;44460;40.162;18.294;2023-04-25T12:51:42;8.02;;;1.80;;
58681;SDS011;44460;40.162;18.294;2023-04-25T12:54:08;7.78;;;2.15;;
58681;SDS011;44460;40.162;18.294;2023-04-25T12:56:34;7.78;;;2.03;;
58681;SDS011;44460;40.162;18.294;2023-04-25T12:58:59;9.52;;;2.15;;
58681;SDS011;44460;40.162;18.294;2023-04-25T13:01:25;8.95;;;2.30;;
58681;SDS011;44460;40.162;18.294;2023-04-25T13:03:51;8.30;;;2.17;;
58681;SDS011;44460;40.162;18.294;2023-04-25T13:06:17;9.63;;;1.95;;
58681;SDS011;44460;40.162;18.294;2023-04-25T13:08:43;7.43;;;2.13;;
58681;SDS011;44460;40.162;18.294;2023-04-25T13:11:08;8.68;;;2.28;;
58681;SDS011;44460;40.162;18.294;2023-04-25T13:13:34;9.48;;;2.20;;
58681;SDS011;44460;40.162;18.294;2023-04-25T13:16:06;8.65;;;1.80;;
58681;SDS011;44460;40.162;18.294;2023-04-25T13:18:32;7.85;;;2.15;;
58681;SDS011;44460;40.162;18.294;2023-04-25T13:20:58;11.55;;;2.20;;
58681;SDS011;44460;40.162;18.294;2023-04-25T13:23:27;9.70;;;2.50;;
58681;SDS011;44460;40.162;18.294;2023-04-25T13:25:53;11.25;;;2.80;;
58681;SDS011;44460;40.162;18.294;2023-04-25T13:28:19;15.30;;;3.15;;
58681;SDS011;44460;40.162;18.294;2023-04-25T13:30:44;15.25;;;2.67;;
58681;SDS011;44460;40.162;18.294;2023-04-25T13:33:10;12.63;;;2.50;;
58681;SDS011;44460;40.162;18.294;2023-04-25T13:35:36;10.38;;;2.38;;
58681;SDS011;44460;40.162;18.294;2023-04-25T13:38:02;10.52;;;2.17;;
58681;SDS011;44460;40.162;18.294;2023-04-25T13:40:27;10.30;;;2.40;;
58681;SDS011;44460;40.162;18.294;2023-04-25T13:42:53;11.27;;;2.55;;
58681;SDS011;44460;40.162;18.294;2023-04-25T13:45:19;10.63;;;2.60;;
58681;SDS011;44460;40.162;18.294;2023-04-25T13:47:44;9.13;;;1.92;;
58681;SDS011;44460;40.162;18.294;2023-04-25T13:50:10;13.00;;;2.42;;
58681;SDS011;44460;40.162;18.294;2023-04-25T13:52:35;8.07;;;2.10;;
58681;SDS011;44460;40.162;18.294;2023-04-25T13:55:01;7.30;;;2.10;;
58681;SDS011;44460;40.162;18.294;2023-04-25T13:57:28;14.95;;;2.88;;
58681;SDS011;44460;40.162;18.294;2023-04-25T13:59:54;9.93;;;2.40;;
58681;SDS011;44460;40.162;18.294;2023-04-25T14:02:19;8.50;;;2.42;;
58681;SDS011;44460;40.162;18.294;2023-04-25T14:04:44;10.35;;;2.50;;
58681;SDS011;44460;40.162;18.294;2023-04-25T14:07:10;20.42;;;2.80;;
58681;SDS011;44460;40.162;18.294;2023-04-25T14:09:36;9.88;;;2.28;;
58681;SDS011;44460;40.162;18.294;2023-04-25T14:12:01;12.40;;;2.17;;
58681;SDS011;44460;40.162;18.294;2023-04-25T14:14:27;15.43;;;2.75;;
58681;SDS011;44460;40.162;18.294;2023-04-25T14:16:53;11.07;;;2.45;;
58681;SDS011;44460;40.162;18.294;2023-04-25T14:19:22;6.22;;;1.88;;
58681;SDS011;44460;40.162;18.294;2023-04-25T14:21:48;10.18;;;2.65;;
58681;SDS011;44460;40.162;18.294;2023-04-25T14:24:13;12.88;;;3.00;;
58681;SDS011;44460;40.162;18.294;2023-04-25T14:26:39;9.27;;;2.10;;
58681;SDS011;44460;40.162;18.294;2023-04-25T14:29:05;10.93;;;1.90;;
58681;SDS011;44460;40.162;18.294;2023-04-25T14:31:34;8.98;;;2.33;;
58681;SDS011;44460;40.162;18.294;2023-04-25T14:33:59;12.60;;;2.28;;
58681;SDS011;44460;40.162;18.294;2023-04-25T14:36:25;9.75;;;2.30;;
58681;SDS011;44460;40.162;18.294;2023-04-25T14:38:51;7.97;;;3.10;;
58681;SDS011;44460;40.162;18.294;2023-04-25T14:41:17;10.05;;;2.80;;
58681;SDS011;44460;40.162;18.294;2023-04-25T14:43:42;9.68;;;2.15;;
58681;SDS011;44460;40.162;18.294;2023-04-25T14:46:08;10.88;;;2.63;;
58681;SDS011;44460;40.162;18.294;2023-04-25T14:48:34;18.23;;;3.08;;